createdAt,value
2022-11-29T00:01:04.192Z,100137.84
2022-11-29T00:03:32.723Z,100146.19
2022-11-29T00:06:14.043Z,100133.94
2022-11-29T00:08:43.919Z,100133.06
2022-11-29T00:11:39.216Z,100135.78
2022-11-29T00:14:07.156Z,100135.78
2022-11-29T00:16:34.014Z,100133.94
2022-11-29T00:19:00.930Z,100135.59
2022-11-29T00:21:27.856Z,100138.22
2022-11-29T00:23:54.317Z,100129.44
2022-11-29T00:26:22.095Z,100140.03
2022-11-29T00:28:48.591Z,100136.59
2022-11-29T00:31:15.596Z,100131.44
2022-11-29T00:33:42.208Z,100130.50
2022-11-29T00:36:08.708Z,100132.03
2022-11-29T00:38:35.649Z,100134.75
2022-11-29T00:41:02.124Z,100137.47
2022-11-29T00:43:28.862Z,100135.59
2022-11-29T00:45:57.248Z,100128.63
2022-11-29T00:48:23.722Z,100140.84
2022-11-29T00:50:50.519Z,100133.78
2022-11-29T00:53:17.341Z,100140.72
2022-11-29T00:55:45.138Z,100135.53
2022-11-29T00:58:11.570Z,100141.59
2022-11-29T01:00:38.316Z,100142.47
2022-11-29T01:03:04.896Z,100138.13
2022-11-29T01:05:31.932Z,100137.22
2022-11-29T01:07:59.600Z,100139.94
2022-11-29T01:10:26.729Z,100147.84
2022-11-29T01:12:53.786Z,100149.34
2022-11-29T01:15:20.621Z,100151.06
2022-11-29T01:17:49.346Z,100144.03
2022-11-29T01:20:16.270Z,100151.19
2022-11-29T01:22:43.035Z,100154.75
2022-11-29T01:25:11.648Z,100145.09
2022-11-29T01:27:38.230Z,100154.44
2022-11-29T01:30:07.067Z,100148.59
2022-11-29T01:32:33.759Z,100159.84
2022-11-29T01:35:00.180Z,100152.06
2022-11-29T01:37:29.088Z,100153.72
2022-11-29T01:39:55.473Z,100160.78
2022-11-29T01:42:22.087Z,100158.31
2022-11-29T01:45:03.454Z,100163.03
2022-11-29T01:47:55.380Z,100157.47
2022-11-29T01:50:42.806Z,100162.38
2022-11-29T01:53:29.393Z,100160.63
2022-11-29T01:56:16.592Z,100160.78
2022-11-29T01:59:07.831Z,100159.97
2022-11-29T02:02:01.497Z,100169.31
2022-11-29T02:04:33.090Z,100164.88
2022-11-29T02:06:59.952Z,100159.19
2022-11-29T02:09:26.708Z,100158.22
2022-11-29T02:12:00.591Z,100162.44
2022-11-29T02:14:58.936Z,100159.97
2022-11-29T02:17:56.927Z,100159.97
2022-11-29T02:20:27.095Z,100167.28
2022-11-29T02:23:07.538Z,100170.94
2022-11-29T02:25:40.531Z,100177.75
2022-11-29T02:28:41.002Z,100174.06
2022-11-29T02:31:29.359Z,100169.69
2022-11-29T02:34:20.880Z,100169.69
2022-11-29T02:37:42.285Z,100171.44
2022-11-29T02:40:41.563Z,100166.00
2022-11-29T02:43:17.092Z,100169.31
2022-11-29T02:45:56.588Z,100162.38
2022-11-29T02:48:35.982Z,100168.38
2022-11-29T02:51:17.913Z,100174.53
2022-11-29T02:53:52.209Z,100176.16
2022-11-29T02:57:01.262Z,100170.16
2022-11-29T02:59:36.500Z,100171.03
2022-11-29T03:02:20.108Z,100174.34
2022-11-29T03:05:12.204Z,100177.91
2022-11-29T03:07:53.585Z,100177.16
2022-11-29T03:10:35.824Z,100172.75
2022-11-29T03:13:05.363Z,100184.78
2022-11-29T03:16:01.937Z,100177.84
2022-11-29T03:18:36.530Z,100189.13
2022-11-29T03:21:24.594Z,100191.56
2022-11-29T03:23:55.059Z,100190.03
2022-11-29T03:26:46.077Z,100194.31
2022-11-29T03:29:26.681Z,100190.94
2022-11-29T03:32:09.955Z,100202.34
2022-11-29T03:34:45.568Z,100204.88
2022-11-29T03:37:24.511Z,100199.78
2022-11-29T03:39:59.366Z,100205.78
2022-11-29T03:42:44.253Z,100207.66
2022-11-29T03:45:35.020Z,100216.34
2022-11-29T03:48:07.693Z,100217.81
2022-11-29T03:50:44.236Z,100217.75
2022-11-29T03:53:23.725Z,100217.00
2022-11-29T03:55:55.318Z,100218.69
2022-11-29T03:58:24.770Z,100215.19
2022-11-29T04:01:26.835Z,100220.47
2022-11-29T04:04:36.156Z,100214.25
2022-11-29T04:07:27.481Z,100211.72
2022-11-29T04:09:59.650Z,100212.56
2022-11-29T04:12:36.031Z,100213.50
2022-11-29T04:15:39.727Z,100208.25
2022-11-29T04:18:13.115Z,100218.63
2022-11-29T04:21:04.654Z,100216.03
2022-11-29T04:24:13.487Z,100221.16
2022-11-29T04:27:11.329Z,100226.38
2022-11-29T04:30:15.294Z,100230.94
2022-11-29T04:32:45.355Z,100229.28
2022-11-29T04:35:30.759Z,100238.84
2022-11-29T04:38:40.334Z,100242.22
2022-11-29T04:41:50.127Z,100243.00
2022-11-29T04:44:27.329Z,100247.38
2022-11-29T04:47:26.540Z,100250.13
2022-11-29T04:50:12.788Z,100245.94
2022-11-29T04:52:56.018Z,100258.19
2022-11-29T04:55:49.481Z,100260.66
2022-11-29T04:58:39.685Z,100262.38
2022-11-29T05:01:30.293Z,100263.13
2022-11-29T05:04:06.592Z,100270.34
2022-11-29T05:06:50.588Z,100268.69
2022-11-29T05:09:35.810Z,100265.81
2022-11-29T05:12:06.056Z,100276.25
2022-11-29T05:14:54.005Z,100272.81
2022-11-29T05:17:50.625Z,100275.47
2022-11-29T05:20:41.454Z,100277.38
2022-11-29T05:23:24.678Z,100285.16
2022-11-29T05:26:05.114Z,100290.94
2022-11-29T05:28:51.215Z,100293.63
2022-11-29T05:31:30.715Z,100290.06
2022-11-29T05:34:19.117Z,100295.38
2022-11-29T05:37:10.343Z,100295.16
2022-11-29T05:39:41.241Z,100290.72
2022-11-29T05:42:52.009Z,100287.31
2022-11-29T05:45:27.494Z,100293.28
2022-11-29T05:48:02.466Z,100295.06
2022-11-29T05:50:39.950Z,100288.94
2022-11-29T05:53:28.014Z,100291.56
2022-11-29T05:56:11.395Z,100290.94
2022-11-29T05:58:48.820Z,100304.72
2022-11-29T06:01:29.816Z,100295.91
2022-11-29T06:04:19.470Z,100301.06
2022-11-29T06:06:50.756Z,100299.38
2022-11-29T06:09:39.740Z,100307.28
2022-11-29T06:12:18.252Z,100306.44
2022-11-29T06:15:13.542Z,100307.16
2022-11-29T06:18:02.088Z,100308.97
2022-11-29T06:21:06.282Z,100311.72
2022-11-29T06:23:51.372Z,100316.13
2022-11-29T06:26:36.205Z,100322.94
2022-11-29T06:29:25.274Z,100321.16
2022-11-29T06:32:03.097Z,100328.25
2022-11-29T06:34:37.703Z,100325.72
2022-11-29T06:37:16.448Z,100325.81
2022-11-29T06:39:43.700Z,100330.66
2022-11-29T06:42:10.250Z,100334.97
2022-11-29T06:44:37.058Z,100334.97
2022-11-29T06:47:08.484Z,100341.75
2022-11-29T06:50:01.553Z,100337.63
2022-11-29T06:52:46.580Z,100341.91
2022-11-29T06:55:40.407Z,100341.91
2022-11-29T06:58:06.941Z,100347.13
2022-11-29T07:00:43.694Z,100344.47
2022-11-29T07:03:38.535Z,100347.88
2022-11-29T07:06:15.512Z,100353.88
2022-11-29T07:08:42.846Z,100358.31
2022-11-29T07:11:13.428Z,100367.13
2022-11-29T07:13:40.248Z,100362.66
2022-11-29T07:16:17.379Z,100375.44
2022-11-29T07:19:00.910Z,100367.69
2022-11-29T07:21:58.572Z,100377.25
2022-11-29T07:24:51.098Z,100383.31
2022-11-29T07:27:29.651Z,100380.88
2022-11-29T07:30:51.009Z,100385.16
2022-11-29T07:33:29.357Z,100385.63
2022-11-29T07:36:09.217Z,100389.66
2022-11-29T07:38:54.260Z,100390.72
2022-11-29T07:41:32.105Z,100397.59
2022-11-29T07:44:11.533Z,100402.22
2022-11-29T07:46:38.385Z,100395.16
2022-11-29T07:49:06.090Z,100401.91
2022-11-29T07:51:32.714Z,100397.56
2022-11-29T07:53:59.941Z,100406.16
2022-11-29T07:56:26.480Z,100406.97
2022-11-29T07:58:53.092Z,100407.19
2022-11-29T08:01:20.208Z,100407.13
2022-11-29T08:03:46.777Z,100415.72
2022-11-29T08:06:13.327Z,100414.63
2022-11-29T08:08:43.904Z,100412.88
2022-11-29T08:11:12.562Z,100412.16
2022-11-29T08:13:39.267Z,100413.00
2022-11-29T08:16:06.510Z,100411.22
2022-11-29T08:18:33.538Z,100411.22
2022-11-29T08:21:05.852Z,100420.47
2022-11-29T08:23:32.425Z,100420.81
2022-11-29T08:26:01.003Z,100415.09
2022-11-29T08:28:27.524Z,100421.09
2022-11-29T08:31:06.096Z,100424.09
2022-11-29T08:33:35.882Z,100431.75
2022-11-29T08:36:15.366Z,100432.78
2022-11-29T08:38:42.130Z,100431.72
2022-11-29T08:41:10.945Z,100434.16
2022-11-29T08:43:37.749Z,100431.75
2022-11-29T08:46:04.392Z,100436.19
2022-11-29T08:48:31.273Z,100434.19
2022-11-29T08:50:58.152Z,100436.13
2022-11-29T08:53:44.544Z,100439.31
2022-11-29T08:57:04.280Z,100444.31
2022-11-29T08:59:05.998Z,100443.69
2022-11-29T09:01:32.635Z,100446.09
2022-11-29T09:04:07.266Z,100447.63
2022-11-29T09:06:44.359Z,100452.75
2022-11-29T09:09:11.137Z,100457.03
2022-11-29T09:11:37.610Z,100462.31
2022-11-29T09:14:07.233Z,100459.97
2022-11-29T09:16:38.395Z,100470.47
2022-11-29T09:19:05.814Z,100464.94
2022-11-29T09:21:37.623Z,100466.06
2022-11-29T09:24:06.407Z,100468.59
2022-11-29T09:26:35.656Z,100471.09
2022-11-29T09:29:04.364Z,100471.59
2022-11-29T09:31:31.769Z,100468.69
2022-11-29T09:33:58.669Z,100474.72
2022-11-29T09:36:28.928Z,100478.94
2022-11-29T09:38:55.911Z,100482.06
2022-11-29T09:41:49.778Z,100482.34
2022-11-29T09:44:48.811Z,100487.28
2022-11-29T09:47:40.127Z,100485.63
2022-11-29T09:50:31.225Z,100489.78
2022-11-29T09:53:45.899Z,100486.38
2022-11-29T09:56:26.783Z,100487.28
2022-11-29T09:59:09.633Z,100489.50
2022-11-29T10:01:45.276Z,100481.47
2022-11-29T10:04:19.836Z,100484.06
2022-11-29T10:06:58.912Z,100489.16
2022-11-29T10:09:44.438Z,100495.19
2022-11-29T10:12:17.218Z,100490.91
2022-11-29T10:14:50.070Z,100487.56
2022-11-29T10:17:39.908Z,100491.78
2022-11-29T10:20:16.726Z,100485.84
2022-11-29T10:23:03.241Z,100482.50
2022-11-29T10:25:35.781Z,100491.97
2022-11-29T10:28:05.179Z,100487.38
2022-11-29T10:30:35.610Z,100488.03
2022-11-29T10:33:02.903Z,100485.91
2022-11-29T10:35:35.879Z,100483.19
2022-11-29T10:40:58.947Z,100484.13
2022-11-29T10:43:26.417Z,100484.75
2022-11-29T10:45:56.293Z,100481.16
2022-11-29T10:48:27.215Z,100481.78
2022-11-29T10:50:54.216Z,100479.44
2022-11-29T10:53:37.377Z,100477.41
2022-11-29T10:56:08.752Z,100477.19
2022-11-29T10:58:36.094Z,100482.28
2022-11-29T11:01:07.632Z,100472.81
2022-11-29T11:03:42.249Z,100475.44
2022-11-29T11:06:15.576Z,100482.25
2022-11-29T11:09:12.780Z,100477.09
2022-11-29T11:11:40.180Z,100475.09
2022-11-29T11:14:23.907Z,100476.75
2022-11-29T11:16:51.743Z,100474.09
2022-11-29T11:19:32.926Z,100470.38
2022-11-29T11:22:01.820Z,100472.88
2022-11-29T11:24:31.271Z,100483.97
2022-11-29T11:26:58.802Z,100473.13
2022-11-29T11:29:33.568Z,100472.16
2022-11-29T11:32:00.694Z,100472.72
2022-11-29T11:34:34.258Z,100477.22
2022-11-29T11:37:19.232Z,100481.25
2022-11-29T11:39:48.897Z,100479.38
2022-11-29T11:42:38.604Z,100481.03
2022-11-29T11:45:11.181Z,100485.50
2022-11-29T11:47:51.456Z,100488.31
2022-11-29T11:50:32.717Z,100492.72
2022-11-29T11:53:03.897Z,100490.50
2022-11-29T11:55:33.060Z,100492.81
2022-11-29T11:58:12.006Z,100503.50
2022-11-29T12:03:40.703Z,100493.88
2022-11-29T12:06:25.710Z,100505.81
2022-11-29T12:09:21.684Z,100498.66
2022-11-29T12:12:02.085Z,100501.34
2022-11-29T12:14:51.755Z,100504.75
2022-11-29T12:17:36.961Z,100502.44
2022-11-29T12:20:20.486Z,100502.63
2022-11-29T12:22:53.092Z,100503.41
2022-11-29T12:25:26.391Z,100506.56
2022-11-29T12:27:53.018Z,100505.69
2022-11-29T12:30:19.902Z,100503.25
2022-11-29T12:33:08.385Z,100507.59
2022-11-29T12:35:53.774Z,100510.00
2022-11-29T12:38:28.354Z,100510.81
2022-11-29T12:41:16.246Z,100514.16
2022-11-29T12:44:20.193Z,100515.56
2022-11-29T12:50:30.517Z,100521.06
2022-11-29T12:53:16.191Z,100517.91
2022-11-29T12:56:10.798Z,100516.34
2022-11-29T12:58:46.181Z,100521.50
2022-11-29T13:01:51.037Z,100520.63
2022-11-29T13:04:43.454Z,100519.88
2022-11-29T13:07:30.934Z,100521.59
2022-11-29T13:10:18.022Z,100527.69
2022-11-29T13:13:02.914Z,100529.97
2022-11-29T13:15:44.576Z,100525.03
2022-11-29T13:18:22.734Z,100527.72
2022-11-29T13:21:18.218Z,100526.22
2022-11-29T13:24:08.887Z,100532.94
2022-11-29T13:26:38.987Z,100534.75
2022-11-29T13:29:07.365Z,100530.28
2022-11-29T13:31:34.388Z,100530.31
2022-11-29T13:34:27.248Z,100527.72
2022-11-29T13:37:42.005Z,100535.66
2022-11-29T13:40:37.742Z,100530.41
2022-11-29T13:43:19.759Z,100532.25
2022-11-29T13:45:52.483Z,100527.69
2022-11-29T13:48:34.558Z,100529.69
2022-11-29T13:51:22.995Z,100537.44
2022-11-29T13:53:49.766Z,100530.53
2022-11-29T13:56:48.745Z,100535.91
2022-11-29T13:59:28.883Z,100541.84
2022-11-29T14:01:56.868Z,100535.72
2022-11-29T14:04:26.383Z,100539.13
2022-11-29T14:07:15.300Z,100535.53
2022-11-29T14:09:59.114Z,100541.56
2022-11-29T14:12:28.921Z,100537.28
2022-11-29T14:15:03.013Z,100539.28
2022-11-29T14:17:48.172Z,100548.75
2022-11-29T14:20:43.813Z,100544.16
2022-11-29T14:23:16.044Z,100547.56
2022-11-29T14:26:02.430Z,100555.28
2022-11-29T14:28:34.269Z,100553.56
2022-11-29T14:31:02.972Z,100556.41
2022-11-29T14:34:12.738Z,100558.09
2022-11-29T14:36:50.066Z,100561.38
2022-11-29T14:39:29.854Z,100562.28
2022-11-29T14:42:16.812Z,100557.19
2022-11-29T14:44:52.564Z,100559.91
2022-11-29T14:47:19.049Z,100560.69
2022-11-29T14:49:46.707Z,100568.25
2022-11-29T14:52:13.102Z,100562.28
2022-11-29T14:54:57.712Z,100567.59
2022-11-29T14:57:49.757Z,100568.47
2022-11-29T15:00:18.968Z,100572.06
2022-11-29T15:03:25.039Z,100573.53
2022-11-29T15:06:06.197Z,100573.59
2022-11-29T15:08:40.620Z,100578.94
2022-11-29T15:11:10.202Z,100581.56
2022-11-29T15:13:54.484Z,100581.66
2022-11-29T15:16:44.575Z,100586.03
2022-11-29T15:19:31.485Z,100587.66
2022-11-29T15:22:06.350Z,100589.50
2022-11-29T15:24:49.999Z,100594.63
2022-11-29T15:27:18.057Z,100601.47
2022-11-29T15:29:52.189Z,100595.56
2022-11-29T15:32:25.993Z,100594.66
2022-11-29T15:34:55.772Z,100601.47
2022-11-29T15:37:31.727Z,100603.47
2022-11-29T15:40:06.651Z,100598.25
2022-11-29T15:42:54.003Z,100604.09
2022-11-29T15:45:33.262Z,100612.13
2022-11-29T15:48:15.703Z,100602.53
2022-11-29T15:51:00.077Z,100603.28
2022-11-29T15:53:43.217Z,100605.88
2022-11-29T15:56:30.976Z,100610.13
2022-11-29T15:59:02.314Z,100621.53
2022-11-29T16:01:29.630Z,100619.63
2022-11-29T16:03:57.318Z,100621.59
2022-11-29T16:06:27.090Z,100626.69
2022-11-29T16:08:54.325Z,100630.91
2022-11-29T16:11:24.822Z,100630.25
2022-11-29T16:14:20.877Z,100630.91
2022-11-29T16:16:52.344Z,100625.72
2022-11-29T16:19:24.759Z,100628.44
2022-11-29T16:22:09.429Z,100624.84
2022-11-29T16:24:47.306Z,100628.13
2022-11-29T16:27:14.651Z,100626.47
2022-11-29T16:29:45.078Z,100621.13
2022-11-29T16:32:32.481Z,100622.06
2022-11-29T16:35:17.472Z,100625.63
2022-11-29T16:37:45.788Z,100624.63
2022-11-29T16:40:27.903Z,100630.78
2022-11-29T16:43:03.459Z,100631.81
2022-11-29T16:45:39.785Z,100637.03
2022-11-29T16:48:27.691Z,100633.53
2022-11-29T16:51:09.426Z,100632.69
2022-11-29T16:53:38.094Z,100634.22
2022-11-29T16:56:05.736Z,100635.22
2022-11-29T16:58:36.377Z,100639.75
2022-11-29T17:01:19.597Z,100633.72
2022-11-29T17:03:46.219Z,100637.16
2022-11-29T17:06:15.851Z,100645.03
2022-11-29T17:08:45.650Z,100649.38
2022-11-29T17:11:12.278Z,100637.47
2022-11-29T17:13:39.318Z,100641.69
2022-11-29T17:16:11.998Z,100643.16
2022-11-29T17:18:40.827Z,100645.81
2022-11-29T17:21:16.912Z,100641.47
2022-11-29T17:23:43.468Z,100649.13
2022-11-29T17:26:10.264Z,100652.50
2022-11-29T17:28:36.811Z,100648.25
2022-11-29T17:31:09.812Z,100656.00
2022-11-29T17:33:36.338Z,100653.66
2022-11-29T17:36:12.762Z,100656.13
2022-11-29T17:38:39.313Z,100657.81
2022-11-29T17:41:17.871Z,100663.84
2022-11-29T17:43:44.376Z,100659.50
2022-11-29T17:46:20.986Z,100666.56
2022-11-29T17:48:48.197Z,100668.34
2022-11-29T17:51:43.696Z,100674.47
2022-11-29T17:54:04.347Z,100667.47
2022-11-29T17:56:31.303Z,100674.59
2022-11-29T17:59:00.689Z,100673.91
2022-11-29T18:01:29.321Z,100679.94
2022-11-29T18:03:59.084Z,100683.44
2022-11-29T18:06:28.405Z,100686.94
2022-11-29T18:09:00.190Z,100685.22
2022-11-29T18:11:40.325Z,100685.19
2022-11-29T18:14:14.039Z,100699.03
2022-11-29T18:16:45.264Z,100692.78
2022-11-29T18:19:14.610Z,100692.03
2022-11-29T18:21:42.651Z,100701.63
2022-11-29T18:24:09.928Z,100701.63
2022-11-29T18:26:37.792Z,100705.81
2022-11-29T18:29:06.019Z,100697.47
2022-11-29T18:31:35.793Z,100698.28
2022-11-29T18:34:11.581Z,100708.63
2022-11-29T18:36:43.903Z,100707.75
2022-11-29T18:39:15.981Z,100707.72
2022-11-29T18:41:44.498Z,100707.75
2022-11-29T18:44:13.601Z,100710.22
2022-11-29T18:46:45.050Z,100713.88
2022-11-29T18:49:14.401Z,100711.31
2022-11-29T18:51:45.018Z,100719.06
2022-11-29T18:54:12.630Z,100720.09
2022-11-29T18:56:39.415Z,100720.03
2022-11-29T18:59:10.821Z,100716.47
2022-11-29T19:01:43.028Z,100721.69
2022-11-29T19:04:15.705Z,100716.44
2022-11-29T19:06:43.024Z,100719.06
2022-11-29T19:09:21.550Z,100708.66
2022-11-29T19:11:51.165Z,100710.47
2022-11-29T19:14:18.860Z,100709.56
2022-11-29T19:16:47.621Z,100710.69
2022-11-29T19:19:14.498Z,100706.25
2022-11-29T19:21:41.505Z,100711.38
2022-11-29T19:24:14.444Z,100707.88
2022-11-29T19:26:44.790Z,100712.19
2022-11-29T19:29:12.724Z,100713.00
2022-11-29T19:31:39.384Z,100709.47
2022-11-29T19:34:06.892Z,100714.69
2022-11-29T19:36:33.917Z,100714.03
2022-11-29T19:39:01.877Z,100710.56
2022-11-29T19:41:33.685Z,100701.91
2022-11-29T19:44:02.907Z,100713.19
2022-11-29T19:46:32.330Z,100701.13
2022-11-29T19:48:59.991Z,100703.72
2022-11-29T19:51:28.119Z,100717.69
2022-11-29T19:53:57.411Z,100717.00
2022-11-29T19:56:24.423Z,100719.66
2022-11-29T19:58:51.299Z,100724.88
2022-11-29T20:01:22.600Z,100724.88
2022-11-29T20:03:49.985Z,100733.47
2022-11-29T20:06:17.735Z,100727.59
2022-11-29T20:08:45.675Z,100727.63
2022-11-29T20:11:16.506Z,100732.88
2022-11-29T20:13:45.303Z,100732.13
2022-11-29T20:16:18.374Z,100734.72
2022-11-29T20:18:50.954Z,100741.50
2022-11-29T20:21:25.653Z,100741.56
2022-11-29T20:23:58.256Z,100740.78
2022-11-29T20:26:26.889Z,100748.47
2022-11-29T20:28:53.476Z,100746.78
2022-11-29T20:31:22.715Z,100744.47
2022-11-29T20:33:52.284Z,100741.66
2022-11-29T20:36:53.011Z,100747.72
2022-11-29T20:39:35.635Z,100751.19
2022-11-29T20:42:23.683Z,100751.28
2022-11-29T20:44:56.508Z,100750.56
2022-11-29T20:47:25.856Z,100751.44
2022-11-29T20:49:52.850Z,100745.38
2022-11-29T20:52:28.987Z,100748.81
2022-11-29T20:54:55.465Z,100754.03
2022-11-29T20:57:22.054Z,100751.47
2022-11-29T20:59:48.641Z,100754.06
2022-11-29T21:02:18.327Z,100749.84
2022-11-29T21:04:45.123Z,100756.03
2022-11-29T21:07:11.929Z,100757.88
2022-11-29T21:09:38.478Z,100759.56
2022-11-29T21:12:05.874Z,100763.03
2022-11-29T21:14:32.647Z,100770.91
2022-11-29T21:16:59.597Z,100769.25
2022-11-29T21:19:26.547Z,100763.31
2022-11-29T21:22:14.332Z,100764.97
2022-11-29T21:24:52.889Z,100762.53
2022-11-29T21:27:28.629Z,100763.56
2022-11-29T21:29:55.719Z,100763.50
2022-11-29T21:32:25.392Z,100766.19
2022-11-29T21:34:52.538Z,100760.09
2022-11-29T21:37:22.790Z,100773.13
2022-11-29T21:39:51.595Z,100768.69
2022-11-29T21:42:18.408Z,100770.34
2022-11-29T21:44:45.380Z,100767.72
2022-11-29T21:47:12.663Z,100780.78
2022-11-29T21:49:40.025Z,100772.06
2022-11-29T21:52:06.864Z,100776.38
2022-11-29T21:54:33.487Z,100778.13
2022-11-29T21:57:01.589Z,100777.28
2022-11-29T21:59:28.436Z,100784.16
2022-11-29T22:01:55.212Z,100777.25
2022-11-29T22:04:21.960Z,100781.56
2022-11-29T22:06:48.371Z,100774.50
2022-11-29T22:09:14.820Z,100779.56
2022-11-29T22:11:42.713Z,100779.50
2022-11-29T22:14:14.672Z,100781.25
2022-11-29T22:16:49.211Z,100771.78
2022-11-29T22:19:21.342Z,100770.91
2022-11-29T22:21:53.671Z,100770.00
2022-11-29T22:24:23.278Z,100764.88
2022-11-29T22:26:50.878Z,100769.09
2022-11-29T22:29:18.151Z,100776.16
2022-11-29T22:31:47.335Z,100770.09
2022-11-29T22:34:14.486Z,100769.19
2022-11-29T22:36:41.689Z,100765.72
2022-11-29T22:39:09.518Z,100773.38
2022-11-29T22:41:38.044Z,100765.53
2022-11-29T22:44:05.409Z,100771.50
2022-11-29T22:46:35.276Z,100769.00
2022-11-29T22:49:03.072Z,100775.91
2022-11-29T22:51:35.200Z,100787.13
2022-11-29T22:54:07.309Z,100781.81
2022-11-29T22:56:37.165Z,100785.41
2022-11-29T22:59:04.288Z,100790.66
2022-11-29T23:01:33.003Z,100788.06
2022-11-29T23:04:04.016Z,100779.47
2022-11-29T23:06:33.676Z,100775.16
2022-11-29T23:09:06.374Z,100779.47
2022-11-29T23:11:33.968Z,100784.63
2022-11-29T23:14:00.990Z,100778.53
2022-11-29T23:16:29.923Z,100780.22
2022-11-29T23:18:58.150Z,100777.63
2022-11-29T23:21:25.821Z,100784.50
2022-11-29T23:23:56.383Z,100781.09
2022-11-29T23:26:29.344Z,100778.50
2022-11-29T23:28:56.411Z,100775.00
2022-11-29T23:31:24.098Z,100776.78
2022-11-29T23:33:50.987Z,100779.34
2022-11-29T23:36:17.893Z,100785.41
2022-11-29T23:38:44.387Z,100782.03
2022-11-29T23:41:11.796Z,100777.69
2022-11-29T23:43:40.573Z,100769.97
2022-11-29T23:46:14.405Z,100781.25
2022-11-29T23:48:42.595Z,100772.56
2022-11-29T23:51:09.738Z,100772.53
2022-11-29T23:53:36.631Z,100777.75
2022-11-29T23:56:06.361Z,100769.84
2022-11-29T23:58:33.710Z,100769.97
